Briggsville, Wisconsin
Current Conditions -  °F | °C
As of 8:35 PM on Wednesday 22 Oct 2014 (Local Time) from KDLL Reporting Station
Clear Clear  
Wind Chill:   Ceiling: Unl
Heat Index:   Visibility: 10mi
Dew Point:   Wind: 5mph
Humidity: 77%   Direction: 130°SE
Pressure: 30.22"   Gusts: NA
Location:  43.65°N, 89.59°W
Report Text: KDLL 230135Z AUTO 13004KT 10SM CLR 06/02 A3022 RMK AO2 T00580020
Loading
Personal Weather Stations






























Interactive Weather Map
Tropical Storm Tracking
New forecast layout! Learn more

10-Day Weather Forecast

Advertisements
Track Severe Weather on mobile